createdAt,value
2023-04-05T00:00:22.392Z,47.45
2023-04-05T00:02:30.046Z,47.40
2023-04-05T00:04:34.898Z,47.65
2023-04-05T00:06:40.196Z,47.89
2023-04-05T00:08:44.544Z,47.83
2023-04-05T00:10:47.132Z,47.87
2023-04-05T00:12:51.091Z,47.98
2023-04-05T00:14:53.714Z,47.94
2023-04-05T00:16:56.635Z,48.10
2023-04-05T00:19:00.422Z,48.38
2023-04-05T00:21:03.308Z,48.23
2023-04-05T00:23:07.042Z,48.13
2023-04-05T00:25:10.022Z,48.29
2023-04-05T00:27:12.719Z,48.57
2023-04-05T00:29:15.483Z,48.82
2023-04-05T00:31:18.839Z,49.04
2023-04-05T00:33:21.486Z,49.03
2023-04-05T00:35:28.438Z,49.34
2023-04-05T00:37:31.054Z,50.02
2023-04-05T00:39:33.707Z,49.80
2023-04-05T00:41:36.985Z,50.49
2023-04-05T00:43:39.740Z,50.39
2023-04-05T00:45:42.845Z,51.06
2023-04-05T00:47:45.758Z,51.43
2023-04-05T00:49:48.527Z,51.52
2023-04-05T00:51:51.209Z,51.96
2023-04-05T00:53:54.637Z,52.31
2023-04-05T00:55:58.326Z,52.72
2023-04-05T00:58:01.240Z,52.75
2023-04-05T01:00:09.617Z,52.50
2023-04-05T01:02:32.075Z,52.76
2023-04-05T01:04:37.037Z,52.63
2023-04-05T01:06:51.040Z,52.63
2023-04-05T01:09:08.895Z,52.34
2023-04-05T01:11:13.653Z,52.04
2023-04-05T01:13:17.674Z,51.72
2023-04-05T01:15:20.836Z,52.18
2023-04-05T01:17:28.551Z,52.30
2023-04-05T01:19:31.535Z,52.10
2023-04-05T01:21:39.979Z,52.48
2023-04-05T01:24:10.111Z,52.41
2023-04-05T01:26:46.856Z,52.72
2023-04-05T01:29:18.004Z,53.18
2023-04-05T01:31:29.632Z,53.02
2023-04-05T01:33:44.365Z,53.21
2023-04-05T01:36:10.447Z,53.26
2023-04-05T01:38:19.340Z,53.24
2023-04-05T01:40:23.283Z,53.44
2023-04-05T01:42:26.829Z,53.83
2023-04-05T01:44:30.204Z,53.79
2023-04-05T01:46:33.041Z,54.09
2023-04-05T01:48:35.809Z,54.06
2023-04-05T01:50:38.959Z,54.10
2023-04-05T01:52:42.611Z,54.08
2023-04-05T01:54:45.558Z,54.72
2023-04-05T01:56:48.247Z,54.64
2023-04-05T01:58:51.341Z,54.76
2023-04-05T02:00:57.706Z,55.47
2023-04-05T02:03:00.586Z,55.11
2023-04-05T02:05:03.348Z,55.20
2023-04-05T02:07:06.309Z,55.09
2023-04-05T02:09:09.034Z,55.21
2023-04-05T02:11:11.798Z,54.77
2023-04-05T02:13:14.576Z,55.08
2023-04-05T02:15:17.365Z,54.63
2023-04-05T02:17:20.151Z,54.92
2023-04-05T02:19:23.898Z,54.95
2023-04-05T02:21:26.936Z,54.61
2023-04-05T02:23:30.733Z,54.40
2023-04-05T02:25:33.487Z,54.66
2023-04-05T02:27:37.597Z,54.28
2023-04-05T02:29:40.379Z,54.64
2023-04-05T02:31:43.137Z,54.17
2023-04-05T02:33:45.847Z,53.56
2023-04-05T02:35:51.921Z,53.37
2023-04-05T02:37:54.873Z,53.17
2023-04-05T02:39:57.442Z,52.76
2023-04-05T02:42:00.220Z,52.95
2023-04-05T02:44:03.273Z,52.63
2023-04-05T02:46:06.117Z,52.75
2023-04-05T02:48:09.027Z,52.79
2023-04-05T02:50:11.819Z,52.95
2023-04-05T02:52:15.278Z,53.11
2023-04-05T02:54:17.940Z,53.35
2023-04-05T02:56:22.280Z,53.67
2023-04-05T02:58:25.093Z,53.29
2023-04-05T03:00:28.403Z,53.36
2023-04-05T03:02:31.723Z,53.34
2023-04-05T03:04:34.692Z,53.30
2023-04-05T03:06:38.619Z,53.54
2023-04-05T03:08:46.660Z,53.86
2023-04-05T03:10:51.807Z,53.76
2023-04-05T03:12:54.557Z,54.03
2023-04-05T03:14:57.183Z,54.17
2023-04-05T03:16:59.909Z,54.94
2023-04-05T03:19:02.725Z,54.70
2023-04-05T03:21:06.202Z,54.68
2023-04-05T03:23:09.547Z,55.12
2023-04-05T03:25:12.209Z,54.56
2023-04-05T03:27:15.914Z,54.64
2023-04-05T03:29:18.583Z,54.31
2023-04-05T03:31:21.849Z,54.97
2023-04-05T03:33:24.892Z,54.65
2023-04-05T03:35:31.285Z,55.09
2023-04-05T03:37:33.957Z,54.59
2023-04-05T03:39:37.104Z,54.31
2023-04-05T03:41:40.712Z,53.93
2023-04-05T03:43:43.379Z,53.86
2023-04-05T03:45:46.212Z,53.55
2023-04-05T03:47:48.933Z,53.69
2023-04-05T03:49:51.671Z,53.54
2023-04-05T03:51:54.454Z,53.62
2023-04-05T03:53:57.113Z,53.64
2023-04-05T03:55:59.844Z,53.62
2023-04-05T03:58:02.645Z,53.27
2023-04-05T04:00:15.148Z,53.74
2023-04-05T04:02:17.923Z,53.25
2023-04-05T04:04:21.176Z,53.91
2023-04-05T04:06:27.447Z,54.44
2023-04-05T04:08:30.838Z,55.18
2023-04-05T04:10:35.200Z,55.33
2023-04-05T04:12:38.796Z,55.29
2023-04-05T04:14:41.535Z,54.61
2023-04-05T04:16:44.176Z,54.21
2023-04-05T04:18:46.908Z,54.63
2023-04-05T04:20:49.703Z,54.14
2023-04-05T04:22:54.090Z,54.15
2023-04-05T04:24:56.821Z,55.01
2023-04-05T04:26:59.622Z,54.42
2023-04-05T04:29:03.541Z,54.03
2023-04-05T04:31:09.325Z,53.09
2023-04-05T04:33:12.157Z,52.72
2023-04-05T04:35:21.007Z,52.42
2023-04-05T04:37:30.326Z,51.80
2023-04-05T04:39:33.101Z,51.80
2023-04-05T04:41:38.416Z,51.38
2023-04-05T04:43:44.918Z,51.30
2023-04-05T04:45:48.643Z,50.97
2023-04-05T04:47:53.879Z,50.69
2023-04-05T04:49:57.589Z,50.47
2023-04-05T04:52:00.464Z,50.24
2023-04-05T04:54:03.228Z,49.78
2023-04-05T04:56:09.248Z,49.76
2023-04-05T04:58:13.880Z,49.52
2023-04-05T05:00:17.020Z,49.32
2023-04-05T05:02:24.305Z,48.99
2023-04-05T05:04:27.110Z,49.27
2023-04-05T05:06:30.089Z,49.38
2023-04-05T05:08:32.893Z,48.82
2023-04-05T05:10:36.015Z,48.77
2023-04-05T05:12:39.306Z,48.96
2023-04-05T05:14:42.149Z,48.60
2023-04-05T05:16:44.875Z,48.30
2023-04-05T05:18:48.742Z,47.77
2023-04-05T05:20:52.365Z,47.64
2023-04-05T05:22:55.809Z,47.29
2023-04-05T05:24:58.396Z,47.03
2023-04-05T05:27:01.039Z,47.02
2023-04-05T05:29:04.384Z,46.95
2023-04-05T05:31:07.081Z,46.43
2023-04-05T05:33:10.081Z,46.40
2023-04-05T05:35:12.811Z,46.01
2023-04-05T05:37:16.840Z,45.67
2023-04-05T05:39:20.764Z,45.35
2023-04-05T05:41:24.337Z,45.13
2023-04-05T05:43:27.195Z,45.03
2023-04-05T05:45:29.975Z,44.82
2023-04-05T05:47:32.994Z,44.86
2023-04-05T05:49:35.905Z,44.31
2023-04-05T05:51:38.558Z,44.02
2023-04-05T05:53:41.315Z,44.00
2023-04-05T05:55:44.026Z,43.61
2023-04-05T05:57:46.860Z,43.66
2023-04-05T05:59:49.510Z,43.62
2023-04-05T06:01:52.447Z,43.12
2023-04-05T06:03:55.628Z,43.08
2023-04-05T06:06:00.034Z,43.10
2023-04-05T06:08:04.128Z,43.04
2023-04-05T06:10:07.809Z,43.22
2023-04-05T06:12:11.466Z,43.34
2023-04-05T06:14:14.209Z,42.87
2023-04-05T06:16:17.321Z,42.61
2023-04-05T06:18:21.795Z,42.49
2023-04-05T06:20:24.800Z,41.89
2023-04-05T06:22:27.786Z,41.36
2023-04-05T06:24:32.288Z,41.41
2023-04-05T06:26:35.397Z,40.88
2023-04-05T06:28:38.260Z,40.77
2023-04-05T06:30:41.323Z,40.70
2023-04-05T06:32:44.548Z,40.39
2023-04-05T06:34:49.275Z,40.15
2023-04-05T06:36:52.160Z,40.11
2023-04-05T06:38:54.882Z,39.93
2023-04-05T06:40:57.514Z,39.84
2023-04-05T06:43:00.412Z,39.52
2023-04-05T06:45:04.513Z,39.29
2023-04-05T06:47:07.244Z,39.09
2023-04-05T06:49:10.136Z,39.39
2023-04-05T06:51:12.867Z,39.24
2023-04-05T06:53:19.904Z,39.93
2023-04-05T06:55:22.593Z,39.62
2023-04-05T06:57:25.466Z,39.54
2023-04-05T06:59:30.743Z,39.41
2023-04-05T07:01:37.257Z,39.75
2023-04-05T07:03:40.124Z,39.48
2023-04-05T07:05:50.945Z,39.18
2023-04-05T07:07:53.684Z,39.74
2023-04-05T07:09:56.741Z,39.46
2023-04-05T07:12:00.235Z,39.15
2023-04-05T07:14:02.987Z,39.42
2023-04-05T07:16:05.946Z,39.48
2023-04-05T07:18:08.843Z,39.42
2023-04-05T07:20:12.169Z,39.62
2023-04-05T07:22:14.902Z,39.45
2023-04-05T07:24:17.575Z,39.41
2023-04-05T07:26:20.344Z,38.96
2023-04-05T07:28:23.178Z,39.07
2023-04-05T07:30:29.213Z,39.03
2023-04-05T07:32:31.951Z,39.39
2023-04-05T07:34:36.829Z,39.11
2023-04-05T07:36:39.641Z,39.64
2023-04-05T07:38:42.507Z,39.12
2023-04-05T07:40:45.177Z,38.62
2023-04-05T07:42:47.910Z,38.88
2023-04-05T07:44:50.610Z,39.02
2023-04-05T07:46:53.369Z,38.33
2023-04-05T07:48:56.240Z,38.22
2023-04-05T07:51:04.343Z,38.49
2023-04-05T07:53:08.430Z,37.62
2023-04-05T07:55:11.121Z,37.40
2023-04-05T07:57:19.133Z,37.20
2023-04-05T07:59:22.338Z,37.02
2023-04-05T08:01:28.116Z,36.44
2023-04-05T08:03:32.402Z,36.74
2023-04-05T08:05:35.156Z,36.32
2023-04-05T08:07:37.901Z,35.86
2023-04-05T08:09:40.749Z,35.80
2023-04-05T08:11:43.730Z,35.91
2023-04-05T08:13:47.094Z,35.77
2023-04-05T08:15:49.748Z,35.29
2023-04-05T08:17:52.828Z,35.67
2023-04-05T08:19:55.696Z,35.43
2023-04-05T08:21:58.374Z,34.69
2023-04-05T08:24:01.145Z,34.78
2023-04-05T08:26:04.213Z,35.03
2023-04-05T08:28:06.961Z,35.05
2023-04-05T08:30:10.422Z,35.08
2023-04-05T08:32:13.269Z,34.44
2023-04-05T08:34:16.084Z,33.85
2023-04-05T08:36:18.741Z,34.19
2023-04-05T08:38:21.812Z,34.21
2023-04-05T08:40:33.535Z,33.69
2023-04-05T08:42:42.415Z,33.63
2023-04-05T08:44:46.746Z,33.07
2023-04-05T08:46:50.827Z,33.55
2023-04-05T08:48:53.689Z,33.28
2023-04-05T08:50:56.541Z,33.00
2023-04-05T08:52:59.123Z,32.55
2023-04-05T08:55:01.754Z,33.24
2023-04-05T08:57:07.421Z,32.45
2023-04-05T08:59:11.812Z,32.48
2023-04-05T09:01:15.312Z,32.23
2023-04-05T09:03:24.361Z,31.61
2023-04-05T09:05:27.566Z,32.01
2023-04-05T09:07:31.625Z,32.65
2023-04-05T09:09:38.082Z,32.23
2023-04-05T09:11:41.086Z,32.06
2023-04-05T09:13:43.808Z,31.38
2023-04-05T09:15:47.045Z,31.16
2023-04-05T09:17:50.928Z,31.09
2023-04-05T09:19:53.554Z,30.87
2023-04-05T09:22:04.050Z,31.61
2023-04-05T09:24:07.129Z,31.34
2023-04-05T09:26:25.942Z,30.89
2023-04-05T09:28:42.659Z,31.17
2023-04-05T09:30:48.546Z,31.17
2023-04-05T09:32:53.282Z,31.11
2023-04-05T09:35:01.594Z,31.27
2023-04-05T09:37:16.356Z,31.33
2023-04-05T09:39:23.357Z,31.03
2023-04-05T09:41:26.656Z,31.34
2023-04-05T09:43:43.019Z,31.42
2023-04-05T09:45:46.366Z,31.59
2023-04-05T09:47:57.676Z,31.74
2023-04-05T09:50:06.612Z,32.44
2023-04-05T09:52:41.473Z,31.51
2023-04-05T09:54:44.167Z,32.21
2023-04-05T09:56:57.090Z,31.61
2023-04-05T09:59:01.939Z,32.01
2023-04-05T10:01:16.250Z,32.17
2023-04-05T10:03:21.211Z,32.42
2023-04-05T10:05:26.053Z,32.35
2023-04-05T10:07:29.578Z,32.13
2023-04-05T10:09:35.533Z,32.60
2023-04-05T10:11:39.883Z,32.81
2023-04-05T10:13:42.863Z,32.15
2023-04-05T10:15:47.719Z,32.11
2023-04-05T10:18:00.954Z,32.17
2023-04-05T10:20:28.333Z,31.40
2023-04-05T10:22:41.272Z,31.45
2023-04-05T10:24:53.033Z,31.36
2023-04-05T10:27:05.780Z,31.20
2023-04-05T10:29:35.896Z,31.48
2023-04-05T10:32:21.886Z,31.58
2023-04-05T10:35:13.992Z,31.95
2023-04-05T10:37:48.508Z,32.63
2023-04-05T10:39:51.964Z,31.71
2023-04-05T10:42:22.178Z,31.32
2023-04-05T10:44:26.692Z,31.26
2023-04-05T10:46:31.959Z,31.59
2023-04-05T10:48:52.574Z,30.56
2023-04-05T10:50:57.222Z,30.71
2023-04-05T10:53:01.139Z,30.64
2023-04-05T10:55:04.970Z,30.39
2023-04-05T10:57:10.410Z,30.70
2023-04-05T10:59:14.274Z,30.93
2023-04-05T11:01:19.039Z,30.87
2023-04-05T11:03:50.781Z,31.44
2023-04-05T11:06:20.561Z,30.59
2023-04-05T11:08:23.986Z,30.44
2023-04-05T11:10:28.376Z,30.28
2023-04-05T11:12:48.766Z,29.42
2023-04-05T11:14:52.765Z,30.06
2023-04-05T11:17:00.227Z,29.97
2023-04-05T11:19:03.016Z,30.14
2023-04-05T11:21:08.832Z,30.08
2023-04-05T11:23:13.739Z,29.86
2023-04-05T11:25:24.788Z,29.76
2023-04-05T11:27:29.358Z,30.16
2023-04-05T11:29:50.753Z,29.72
2023-04-05T11:32:01.470Z,29.27
2023-04-05T11:34:10.680Z,29.35
2023-04-05T11:36:15.665Z,29.75
2023-04-05T11:38:23.553Z,29.65
2023-04-05T11:40:37.638Z,29.28
2023-04-05T11:42:41.409Z,28.71
2023-04-05T11:44:49.272Z,28.73
2023-04-05T11:46:54.595Z,28.97
2023-04-05T11:48:57.562Z,29.00
2023-04-05T11:51:00.797Z,29.12
2023-04-05T11:53:19.135Z,29.14
2023-04-05T11:55:27.249Z,29.46
2023-04-05T11:57:29.902Z,29.86
2023-04-05T11:59:36.015Z,29.85
2023-04-05T12:01:39.858Z,29.73
2023-04-05T12:03:42.621Z,29.42
2023-04-05T12:05:53.305Z,29.02
2023-04-05T12:07:58.126Z,28.53
2023-04-05T12:10:03.563Z,28.49
2023-04-05T12:12:17.275Z,28.67
2023-04-05T12:14:23.939Z,28.71
2023-04-05T12:16:27.036Z,28.38
2023-04-05T12:18:32.835Z,28.16
2023-04-05T12:20:35.682Z,28.61
2023-04-05T12:22:40.595Z,28.40
2023-04-05T12:24:43.953Z,28.01
2023-04-05T12:26:47.055Z,28.22
2023-04-05T12:29:00.427Z,28.49
2023-04-05T12:31:03.782Z,28.31
2023-04-05T12:33:10.037Z,28.18
2023-04-05T12:35:18.554Z,27.61
2023-04-05T12:37:21.829Z,27.79
2023-04-05T12:39:29.697Z,27.55
2023-04-05T12:41:33.099Z,27.35
2023-04-05T12:43:41.213Z,27.54
2023-04-05T12:45:44.650Z,27.68
2023-04-05T12:47:57.964Z,27.34
2023-04-05T12:50:11.921Z,27.64
2023-04-05T12:52:21.361Z,28.23
2023-04-05T12:54:24.732Z,28.11
2023-04-05T12:56:30.575Z,28.20
2023-04-05T12:58:36.515Z,28.21
2023-04-05T13:00:39.292Z,28.56
2023-04-05T13:02:41.992Z,28.43
2023-04-05T13:04:45.735Z,28.70
2023-04-05T13:06:48.620Z,28.53
2023-04-05T13:08:52.784Z,28.60
2023-04-05T13:10:57.903Z,28.28
2023-04-05T13:13:01.389Z,28.29
2023-04-05T13:15:04.547Z,28.18
2023-04-05T13:17:07.277Z,28.09
2023-04-05T13:19:09.938Z,28.29
2023-04-05T13:21:12.643Z,28.24
2023-04-05T13:23:15.241Z,28.37
2023-04-05T13:25:17.907Z,28.21
2023-04-05T13:27:21.869Z,28.73
2023-04-05T13:29:24.569Z,27.96
2023-04-05T13:31:27.658Z,28.13
2023-04-05T13:33:30.398Z,27.92
2023-04-05T13:35:33.313Z,27.65
2023-04-05T13:37:36.290Z,27.95
2023-04-05T13:39:38.988Z,27.90
2023-04-05T13:41:41.631Z,27.85
2023-04-05T13:43:44.285Z,28.07
2023-04-05T13:45:47.052Z,28.25
2023-04-05T13:47:49.938Z,27.57
2023-04-05T13:49:52.623Z,27.36
2023-04-05T13:51:55.313Z,27.44
2023-04-05T13:53:58.322Z,27.63
2023-04-05T13:56:00.958Z,27.65
2023-04-05T13:58:03.554Z,27.53
2023-04-05T14:00:07.174Z,28.21
2023-04-05T14:02:11.850Z,28.02
2023-04-05T14:04:15.747Z,27.97
2023-04-05T14:06:18.447Z,28.16
2023-04-05T14:08:21.113Z,28.62
2023-04-05T14:12:26.648Z,29.30
2023-04-05T14:14:29.686Z,29.75
2023-04-05T14:16:32.590Z,30.01
2023-04-05T14:18:35.297Z,30.74
2023-04-05T14:20:38.055Z,31.08
2023-04-05T14:22:40.858Z,30.54
2023-04-05T14:24:43.548Z,30.65
2023-04-05T14:26:49.600Z,30.61
2023-04-05T14:28:53.118Z,30.92
2023-04-05T14:30:55.937Z,30.72
2023-04-05T14:32:58.905Z,30.98
2023-04-05T14:35:01.683Z,31.00
2023-04-05T14:37:06.200Z,31.09
2023-04-05T14:39:08.806Z,31.32
2023-04-05T14:41:11.799Z,31.50
2023-04-05T14:43:14.401Z,31.75
2023-04-05T14:45:17.743Z,32.39
2023-04-05T14:47:20.485Z,32.99
2023-04-05T14:49:23.270Z,32.67
2023-04-05T14:51:27.019Z,33.30
2023-04-05T14:53:30.070Z,32.88
2023-04-05T14:55:32.843Z,33.06
2023-04-05T14:57:35.527Z,32.81
2023-04-05T14:59:38.228Z,33.33
2023-04-05T15:01:44.502Z,33.05
2023-04-05T15:03:48.550Z,33.82
2023-04-05T15:05:51.555Z,33.69
2023-04-05T15:07:54.213Z,33.96
2023-04-05T15:09:56.828Z,33.80
2023-04-05T15:11:59.808Z,33.90
2023-04-05T15:14:02.460Z,34.22
2023-04-05T15:16:05.877Z,34.48
2023-04-05T15:18:08.654Z,34.72
2023-04-05T15:20:11.660Z,35.15
2023-04-05T15:22:15.688Z,35.16
2023-04-05T15:24:18.372Z,35.47
2023-04-05T15:26:21.801Z,35.45
2023-04-05T15:28:24.534Z,35.66
2023-04-05T15:30:27.326Z,35.76
2023-04-05T15:32:33.997Z,36.05
2023-04-05T15:34:36.760Z,35.96
2023-04-05T15:36:39.766Z,37.19
2023-04-05T15:38:42.406Z,38.62
2023-04-05T15:40:47.922Z,37.51
2023-04-05T15:42:50.547Z,39.45
2023-04-05T15:44:53.556Z,37.80
2023-04-05T15:46:56.425Z,37.79
2023-04-05T15:48:59.584Z,39.20
2023-04-05T15:51:02.648Z,38.31
2023-04-05T15:53:05.850Z,37.82
2023-04-05T15:55:08.864Z,37.83
2023-04-05T15:57:12.110Z,38.29
2023-04-05T15:59:15.006Z,39.95
2023-04-05T16:01:17.831Z,38.92
2023-04-05T16:03:20.630Z,38.95
2023-04-05T16:05:23.717Z,38.93
2023-04-05T16:07:26.766Z,39.87
2023-04-05T16:09:30.225Z,40.43
2023-04-05T16:11:33.215Z,40.91
2023-04-05T16:13:36.243Z,40.97
2023-04-05T16:15:38.984Z,41.66
2023-04-05T16:17:41.678Z,41.88
2023-04-05T16:19:44.368Z,42.29
2023-04-05T16:21:47.050Z,43.66
2023-04-05T16:23:49.768Z,43.79
2023-04-05T16:25:52.486Z,43.19
2023-04-05T16:27:55.318Z,43.62
2023-04-05T16:29:57.899Z,44.08
2023-04-05T16:32:00.866Z,43.91
2023-04-05T16:34:03.854Z,44.49
2023-04-05T16:36:06.656Z,45.34
2023-04-05T16:38:09.352Z,45.45
2023-04-05T16:40:12.757Z,46.15
2023-04-05T16:42:15.661Z,46.20
2023-04-05T16:44:18.256Z,46.68
2023-04-05T16:46:21.045Z,45.92
2023-04-05T16:48:23.799Z,45.73
2023-04-05T16:50:26.541Z,46.29
2023-04-05T16:52:29.259Z,47.26
2023-04-05T16:54:32.367Z,47.00
2023-04-05T16:56:35.218Z,46.73
2023-04-05T16:58:37.939Z,47.38
2023-04-05T17:00:40.623Z,47.15
2023-04-05T17:02:43.414Z,47.74
2023-04-05T17:04:46.654Z,47.65
2023-04-05T17:06:49.624Z,47.48
2023-04-05T17:08:52.344Z,47.08
2023-04-05T17:10:55.062Z,47.21
2023-04-05T17:12:57.946Z,47.42
2023-04-05T17:15:00.953Z,47.50
2023-04-05T17:17:03.682Z,46.37
2023-04-05T17:19:06.494Z,46.96
2023-04-05T17:21:09.575Z,47.70
2023-04-05T17:23:13.025Z,47.22
2023-04-05T17:25:16.368Z,47.32
2023-04-05T17:27:19.540Z,48.95
2023-04-05T17:29:22.185Z,48.24
2023-04-05T17:31:26.718Z,48.63
2023-04-05T17:33:29.668Z,47.80
2023-04-05T17:35:33.149Z,49.27
2023-04-05T17:37:36.178Z,48.44
2023-04-05T17:39:39.538Z,48.48
2023-04-05T17:41:42.513Z,47.79
2023-04-05T17:43:45.328Z,47.30
2023-04-05T17:45:48.071Z,47.76
2023-04-05T17:47:51.040Z,47.50
2023-04-05T17:49:53.988Z,47.76
2023-04-05T17:51:56.763Z,47.95
2023-04-05T17:53:59.927Z,47.43
2023-04-05T17:56:02.898Z,47.55
2023-04-05T17:58:06.016Z,47.23
2023-04-05T18:00:10.830Z,48.08
2023-04-05T18:02:13.651Z,47.91
2023-04-05T18:04:16.556Z,48.99
2023-04-05T18:06:20.194Z,48.45
2023-04-05T18:08:24.239Z,49.09
2023-04-05T18:10:27.111Z,47.99
2023-04-05T18:12:29.864Z,48.61
2023-04-05T18:14:32.688Z,49.88
2023-04-05T18:16:35.763Z,49.42
2023-04-05T18:18:38.518Z,48.73
2023-04-05T18:20:41.117Z,49.99
2023-04-05T18:22:43.865Z,48.80
2023-04-05T18:24:46.595Z,48.45
2023-04-05T18:26:49.242Z,47.97
2023-04-05T18:28:57.932Z,48.11
2023-04-05T18:31:00.889Z,49.14
2023-04-05T18:33:03.615Z,49.17
2023-04-05T18:35:07.681Z,48.57
2023-04-05T18:37:10.496Z,49.25
2023-04-05T18:39:13.113Z,48.44
2023-04-05T18:41:15.781Z,47.71
2023-04-05T18:43:18.708Z,47.76
2023-04-05T18:45:22.879Z,47.91
2023-04-05T18:47:25.610Z,47.83
2023-04-05T18:49:28.487Z,47.16
2023-04-05T18:51:32.005Z,48.12
2023-04-05T18:53:34.752Z,47.88
2023-04-05T18:55:37.580Z,48.43
2023-04-05T18:57:40.460Z,48.31
2023-04-05T18:59:43.235Z,47.94
2023-04-05T19:01:46.175Z,48.75
2023-04-05T19:03:50.510Z,48.27
2023-04-05T19:05:54.006Z,49.08
2023-04-05T19:07:56.731Z,47.95
2023-04-05T19:09:59.541Z,47.99
2023-04-05T19:12:02.191Z,48.15
2023-04-05T19:14:04.884Z,48.85
2023-04-05T19:16:07.868Z,48.38
2023-04-05T19:18:11.397Z,47.83
2023-04-05T19:20:14.095Z,47.94
2023-04-05T19:22:16.730Z,48.39
2023-04-05T19:24:21.139Z,48.64
2023-04-05T19:26:23.893Z,49.10
2023-04-05T19:28:29.877Z,48.81
2023-04-05T19:30:32.603Z,48.90
2023-04-05T19:32:35.500Z,48.57
2023-04-05T19:34:39.159Z,48.65
2023-04-05T19:36:41.817Z,48.20
2023-04-05T19:38:44.523Z,48.18
2023-04-05T19:40:47.112Z,48.21
2023-04-05T19:42:49.925Z,47.89
2023-04-05T19:45:00.702Z,48.18
2023-04-05T19:47:09.947Z,47.68
2023-04-05T19:49:17.084Z,47.73
2023-04-05T19:51:28.793Z,47.73
2023-04-05T19:53:39.761Z,47.60
2023-04-05T19:55:42.501Z,47.36
2023-04-05T19:57:45.019Z,47.39
2023-04-05T19:59:47.694Z,47.76
2023-04-05T20:01:51.061Z,47.87
2023-04-05T20:03:53.805Z,47.76
2023-04-05T20:06:17.055Z,48.47
2023-04-05T20:08:19.895Z,48.18
2023-04-05T20:10:41.004Z,48.46
2023-04-05T20:12:43.701Z,48.84
2023-04-05T20:14:46.864Z,49.21
2023-04-05T20:16:49.970Z,48.83
2023-04-05T20:18:54.354Z,49.07
2023-04-05T20:20:57.136Z,49.42
2023-04-05T20:22:59.825Z,49.96
2023-04-05T20:25:31.979Z,50.48
2023-04-05T20:27:34.450Z,50.57
2023-04-05T20:29:36.982Z,50.47
2023-04-05T20:31:40.260Z,51.19
2023-04-05T20:33:47.429Z,51.36
2023-04-05T20:35:51.591Z,51.76
2023-04-05T20:37:55.666Z,51.69
2023-04-05T20:39:58.673Z,52.04
2023-04-05T20:42:01.865Z,51.83
2023-04-05T20:44:04.680Z,52.14
2023-04-05T20:46:08.292Z,52.30
2023-04-05T20:48:14.151Z,52.50
2023-04-05T20:50:17.793Z,52.49
2023-04-05T20:52:21.036Z,52.73
2023-04-05T20:54:24.400Z,53.04
2023-04-05T20:56:40.742Z,53.05
2023-04-05T20:58:43.471Z,53.20
2023-04-05T21:00:46.067Z,53.13
2023-04-05T21:02:49.089Z,53.31
2023-04-05T21:04:51.860Z,52.95
2023-04-05T21:06:54.506Z,52.69
2023-04-05T21:08:57.265Z,52.49
2023-04-05T21:11:00.217Z,53.03
2023-04-05T21:13:02.862Z,52.89
2023-04-05T21:15:06.097Z,52.96
2023-04-05T21:17:08.818Z,52.55
2023-04-05T21:19:11.430Z,52.77
2023-04-05T21:21:14.226Z,52.73
2023-04-05T21:23:27.870Z,53.11
2023-04-05T21:25:33.658Z,52.58
2023-04-05T21:27:36.437Z,52.91
2023-04-05T21:29:39.123Z,52.76
2023-04-05T21:31:41.930Z,52.73
2023-04-05T21:33:44.599Z,52.60
2023-04-05T21:35:47.321Z,52.69
2023-04-05T21:37:50.727Z,52.73
2023-04-05T21:39:53.306Z,52.89
2023-04-05T21:41:56.264Z,52.90
2023-04-05T21:43:58.935Z,52.69
2023-04-05T21:46:01.632Z,52.69
2023-04-05T21:48:04.590Z,52.49
2023-04-05T21:50:08.440Z,52.58
2023-04-05T21:52:11.221Z,52.91
2023-04-05T21:54:13.883Z,52.28
2023-04-05T21:56:16.819Z,52.28
2023-04-05T21:58:19.601Z,52.34
2023-04-05T22:00:22.570Z,51.89
2023-04-05T22:02:25.469Z,52.10
2023-04-05T22:04:29.275Z,52.15
2023-04-05T22:06:31.974Z,52.20
2023-04-05T22:08:34.626Z,52.24
2023-04-05T22:10:37.481Z,52.08
2023-04-05T22:12:40.249Z,52.31
2023-04-05T22:14:42.918Z,52.53
2023-04-05T22:16:45.653Z,52.44
2023-04-05T22:18:48.262Z,52.68
2023-04-05T22:20:50.912Z,52.96
2023-04-05T22:22:53.752Z,53.21
2023-04-05T22:24:56.438Z,53.15
2023-04-05T22:26:59.222Z,53.13
2023-04-05T22:29:02.720Z,53.28
2023-04-05T22:31:05.463Z,53.59
2023-04-05T22:33:08.619Z,53.53
2023-04-05T22:35:11.380Z,53.76
2023-04-05T22:37:14.086Z,53.50
2023-04-05T22:39:16.796Z,53.46
2023-04-05T22:41:19.549Z,52.97
2023-04-05T22:43:22.364Z,52.70
2023-04-05T22:45:28.829Z,52.91
2023-04-05T22:47:31.652Z,52.64
2023-04-05T22:49:34.415Z,52.42
2023-04-05T22:51:37.112Z,52.34
2023-04-05T22:53:43.431Z,52.38
2023-04-05T22:55:46.237Z,52.21
2023-04-05T22:57:49.933Z,52.30
2023-04-05T22:59:52.599Z,52.67
2023-04-05T23:01:55.370Z,52.63
2023-04-05T23:03:58.049Z,53.13
2023-04-05T23:06:00.808Z,53.38
2023-04-05T23:08:04.130Z,53.18
2023-04-05T23:10:07.412Z,53.16
2023-04-05T23:12:11.331Z,53.07
2023-04-05T23:14:14.083Z,52.96
2023-04-05T23:16:17.187Z,53.08
2023-04-05T23:18:23.192Z,53.40
2023-04-05T23:20:25.787Z,53.54
2023-04-05T23:22:28.500Z,53.46
2023-04-05T23:24:31.366Z,53.38
2023-04-05T23:26:34.537Z,53.56
2023-04-05T23:28:37.256Z,53.49
2023-04-05T23:30:40.019Z,53.66
2023-04-05T23:32:42.866Z,53.92
2023-04-05T23:34:45.740Z,53.83
2023-04-05T23:36:48.402Z,53.85
2023-04-05T23:38:51.310Z,54.02
2023-04-05T23:40:53.925Z,53.95
2023-04-05T23:42:56.721Z,54.04
2023-04-05T23:45:02.136Z,54.42
2023-04-05T23:47:05.842Z,54.13
2023-04-05T23:49:08.799Z,54.50
2023-04-05T23:51:11.899Z,54.52
2023-04-05T23:53:14.590Z,54.78
2023-04-05T23:55:17.270Z,55.14
2023-04-05T23:57:19.890Z,55.05
2023-04-05T23:59:22.630Z,55.06
